Wednesday, July 30, 2014, 7:06 AM EDT
Back to Local

KCXY, Harrisburg Capital City

Location: New Cumberland, PA, United States Lat: 40.217
Local Time: 7:06 AM EDT (11:06 GMT) Lon: -76.85
Time Zone: US/Eastern Elev: 347 ft

Show me the last for .
Show Decoded

2014-07-30 05:56 METAR KCXY 300956Z AUTO 25003KT 10SM CLR 11/10 A3004 RMK AO2 SLP172 T01110100 =
2014-07-30 04:56 METAR KCXY 300856Z AUTO 25003KT 10SM CLR 11/10 A3002 RMK AO2 SLP166 T01110100
                 52002 =
2014-07-30 03:56 METAR KCXY 300756Z AUTO 24004KT 10SM CLR 12/11 A3002 RMK AO2 SLP165 T01170106 =
2014-07-30 02:56 METAR KCXY 300656Z AUTO 27003KT 10SM CLR 13/11 A3002 RMK AO2 SLP164 T01280111 =
2014-07-30 01:56 METAR KCXY 300556Z AUTO 27003KT 10SM CLR 14/11 A3001 RMK AO2 SLP164 T01390111
                 10189 20128 58000 =
2014-07-30 00:56 METAR KCXY 300456Z AUTO 00000KT 10SM CLR 13/12 A3002 RMK AO2 SLP167 T01330117
                 402220133 =
2014-07-29 23:56 METAR KCXY 300356Z AUTO 00000KT 10SM CLR 14/12 A3002 RMK AO2 SLP165 T01440117 =
2014-07-29 22:56 METAR KCXY 300256Z AUTO 27003KT 10SM CLR 14/12 A3001 RMK AO2 SLP164 T01440117
                 51009 =
2014-07-29 21:56 METAR KCXY 300156Z AUTO 25004KT 10SM CLR 15/12 A3001 RMK AO2 SLP162 T01500122 =
2014-07-29 20:56 METAR KCXY 300056Z AUTO 23004KT 10SM CLR 16/12 A2999 RMK AO2 SLP157 T01610122 =
2014-07-29 19:56 METAR KCXY 292356Z AUTO 28004KT 10SM FEW085 18/10 A2999 RMK AO2 SLP154 T01830100
                 10222 20183 51013 =
2014-07-29 18:56 METAR KCXY 292256Z 31007KT 10SM BKN070 BKN085 21/09 A2998 RMK AO2 SLP152
                 T02060094 =
2014-07-29 17:56 METAR KCXY 292156Z 32008KT 10SM BKN085 21/11 A2996 RMK AO2 SLP145 T02110106 =
2014-07-29 16:56 METAR KCXY 292056Z 31009KT 10SM OVC080 22/11 A2995 RMK AO2 SLP141 T02170106
                 53008 =
2014-07-29 15:56 METAR KCXY 291956Z 33009KT 10SM FEW060 OVC080 21/11 A2994 RMK AO2 SLP138
                 T02110111 =
2014-07-29 14:56 METAR KCXY 291856Z 33009KT 10SM FEW060 BKN080 22/11 A2993 RMK AO2 SLP135
                 T02220106 =
2014-07-29 13:56 METAR KCXY 291756Z 29004KT 10SM SCT050 OVC070 20/12 A2992 RMK AO2 SLP133
                 T02000117 10211 20161 56003 =
2014-07-29 12:56 METAR KCXY 291656Z 33005KT 10SM FEW040 SCT050 OVC070 21/12 A2993 RMK AO2 SLP134
                 T02110117 =
2014-07-29 11:56 METAR KCXY 291556Z 33007KT 10SM FEW032 BKN055 BKN075 20/12 A2992 RMK AO2 SLP133
                 T02000117 =
2014-07-29 10:56 METAR KCXY 291456Z 35006KT 10SM SCT025 BKN037 OVC075 19/13 A2993 RMK AO2 SLP136
                 T01940128 51002 =
2014-07-29 10:53 METAR KCXY 291453Z 33008KT 10SM SCT025 BKN037 OVC055 19/13 A2993 RMK AO2 =
2014-07-29 10:28 METAR KCXY 291428Z 32005KT 10SM BKN025 BKN030 BKN075 18/13 A2994 RMK AO2
                 T01830128 =
2014-07-29 09:56 METAR KCXY 291356Z 27008KT 10SM BKN075 18/13 A2993 RMK AO2 SLP136 T01830128 =
2014-07-29 08:56 METAR KCXY 291256Z 29008KT 10SM OVC070 18/12 A2993 RMK AO2 SLP134 T01780122 =
2014-07-29 07:56 METAR KCXY 291156Z 26005KT 10SM CLR 16/13 A2992 RMK AO2 SLP131 70015 T01610133
                 10172 20139 53018 =

Support USWX by starting your Amazon purchase here.